sensor_id;sensor_type;location;lat;lon;timestamp;P1;durP1;ratioP1;P2;durP2;ratioP2
13051;SDS011;6592;47.484;9.726;2023-07-20T00:00:29;5.03;;;2.50;;
13051;SDS011;6592;47.484;9.726;2023-07-20T00:03:10;6.57;;;3.15;;
13051;SDS011;6592;47.484;9.726;2023-07-20T00:05:45;4.85;;;2.60;;
13051;SDS011;6592;47.484;9.726;2023-07-20T00:08:13;7.35;;;2.45;;
13051;SDS011;6592;47.484;9.726;2023-07-20T00:10:41;4.72;;;2.55;;
13051;SDS011;6592;47.484;9.726;2023-07-20T00:13:10;5.20;;;2.60;;
13051;SDS011;6592;47.484;9.726;2023-07-20T00:15:39;5.25;;;2.28;;
13051;SDS011;6592;47.484;9.726;2023-07-20T00:18:07;4.80;;;2.10;;
13051;SDS011;6592;47.484;9.726;2023-07-20T00:20:36;4.97;;;2.45;;
13051;SDS011;6592;47.484;9.726;2023-07-20T00:23:05;5.82;;;2.25;;
13051;SDS011;6592;47.484;9.726;2023-07-20T00:25:34;5.78;;;2.22;;
13051;SDS011;6592;47.484;9.726;2023-07-20T00:28:03;4.18;;;1.88;;
13051;SDS011;6592;47.484;9.726;2023-07-20T00:30:31;4.43;;;1.60;;
13051;SDS011;6592;47.484;9.726;2023-07-20T00:32:59;4.45;;;1.60;;
13051;SDS011;6592;47.484;9.726;2023-07-20T00:35:28;3.35;;;1.40;;
13051;SDS011;6592;47.484;9.726;2023-07-20T00:37:56;3.00;;;1.23;;
13051;SDS011;6592;47.484;9.726;2023-07-20T00:40:26;2.00;;;1.10;;
13051;SDS011;6592;47.484;9.726;2023-07-20T00:42:54;4.25;;;1.48;;
13051;SDS011;6592;47.484;9.726;2023-07-20T00:45:22;3.13;;;1.58;;
13051;SDS011;6592;47.484;9.726;2023-07-20T00:47:51;2.00;;;1.08;;
13051;SDS011;6592;47.484;9.726;2023-07-20T00:50:19;3.33;;;1.20;;
13051;SDS011;6592;47.484;9.726;2023-07-20T00:52:47;4.97;;;1.52;;
13051;SDS011;6592;47.484;9.726;2023-07-20T00:55:17;3.97;;;1.30;;
13051;SDS011;6592;47.484;9.726;2023-07-20T00:57:48;3.42;;;1.27;;
13051;SDS011;6592;47.484;9.726;2023-07-20T01:00:16;4.30;;;1.40;;
13051;SDS011;6592;47.484;9.726;2023-07-20T01:02:45;3.15;;;1.50;;
13051;SDS011;6592;47.484;9.726;2023-07-20T01:05:14;2.60;;;1.35;;
13051;SDS011;6592;47.484;9.726;2023-07-20T01:07:46;5.47;;;1.52;;
13051;SDS011;6592;47.484;9.726;2023-07-20T01:10:23;4.55;;;1.90;;
13051;SDS011;6592;47.484;9.726;2023-07-20T01:12:58;4.00;;;1.30;;
13051;SDS011;6592;47.484;9.726;2023-07-20T01:15:29;5.97;;;1.67;;
13051;SDS011;6592;47.484;9.726;2023-07-20T01:17:57;3.30;;;1.40;;
13051;SDS011;6592;47.484;9.726;2023-07-20T01:20:27;6.43;;;1.58;;
13051;SDS011;6592;47.484;9.726;2023-07-20T01:23:01;3.83;;;1.50;;
13051;SDS011;6592;47.484;9.726;2023-07-20T01:29:06;2.78;;;1.25;;
13051;SDS011;6592;47.484;9.726;2023-07-20T01:31:55;3.13;;;1.30;;
13051;SDS011;6592;47.484;9.726;2023-07-20T01:36:54;3.30;;;1.33;;
13051;SDS011;6592;47.484;9.726;2023-07-20T01:39:24;3.20;;;1.33;;
13051;SDS011;6592;47.484;9.726;2023-07-20T01:41:53;2.75;;;1.30;;
13051;SDS011;6592;47.484;9.726;2023-07-20T01:44:23;4.15;;;1.38;;
13051;SDS011;6592;47.484;9.726;2023-07-20T01:46:51;2.90;;;1.38;;
13051;SDS011;6592;47.484;9.726;2023-07-20T01:49:21;2.75;;;1.40;;
13051;SDS011;6592;47.484;9.726;2023-07-20T01:51:49;4.88;;;1.20;;
13051;SDS011;6592;47.484;9.726;2023-07-20T01:54:17;3.70;;;1.30;;
13051;SDS011;6592;47.484;9.726;2023-07-20T01:56:46;3.03;;;1.42;;
13051;SDS011;6592;47.484;9.726;2023-07-20T01:59:14;5.18;;;1.42;;
13051;SDS011;6592;47.484;9.726;2023-07-20T02:01:42;2.47;;;1.08;;
13051;SDS011;6592;47.484;9.726;2023-07-20T02:04:11;2.78;;;1.20;;
13051;SDS011;6592;47.484;9.726;2023-07-20T02:06:41;5.38;;;1.15;;
13051;SDS011;6592;47.484;9.726;2023-07-20T02:09:09;2.92;;;1.10;;
13051;SDS011;6592;47.484;9.726;2023-07-20T02:11:37;2.45;;;1.30;;
13051;SDS011;6592;47.484;9.726;2023-07-20T02:14:05;5.22;;;1.30;;
13051;SDS011;6592;47.484;9.726;2023-07-20T02:16:34;3.05;;;1.20;;
13051;SDS011;6592;47.484;9.726;2023-07-20T02:19:02;2.40;;;1.33;;
13051;SDS011;6592;47.484;9.726;2023-07-20T02:21:33;2.33;;;1.02;;
13051;SDS011;6592;47.484;9.726;2023-07-20T02:24:03;8.93;;;1.30;;
13051;SDS011;6592;47.484;9.726;2023-07-20T02:26:31;9.80;;;1.40;;
13051;SDS011;6592;47.484;9.726;2023-07-20T02:28:59;1.95;;;1.00;;
13051;SDS011;6592;47.484;9.726;2023-07-20T02:31:31;4.30;;;1.20;;
13051;SDS011;6592;47.484;9.726;2023-07-20T02:33:59;4.13;;;1.20;;
13051;SDS011;6592;47.484;9.726;2023-07-20T02:36:27;2.78;;;1.30;;
13051;SDS011;6592;47.484;9.726;2023-07-20T02:38:55;3.53;;;1.00;;
13051;SDS011;6592;47.484;9.726;2023-07-20T02:41:25;2.63;;;1.30;;
13051;SDS011;6592;47.484;9.726;2023-07-20T02:43:53;3.83;;;1.17;;
13051;SDS011;6592;47.484;9.726;2023-07-20T02:46:23;5.43;;;1.20;;
13051;SDS011;6592;47.484;9.726;2023-07-20T02:48:51;5.03;;;1.17;;
13051;SDS011;6592;47.484;9.726;2023-07-20T02:51:19;4.35;;;1.10;;
13051;SDS011;6592;47.484;9.726;2023-07-20T02:53:48;3.58;;;1.10;;
13051;SDS011;6592;47.484;9.726;2023-07-20T02:56:16;3.45;;;1.25;;
13051;SDS011;6592;47.484;9.726;2023-07-20T02:58:46;3.00;;;1.50;;
13051;SDS011;6592;47.484;9.726;2023-07-20T03:01:14;5.20;;;1.20;;
13051;SDS011;6592;47.484;9.726;2023-07-20T03:03:42;4.10;;;1.30;;
13051;SDS011;6592;47.484;9.726;2023-07-20T03:06:13;5.03;;;1.20;;
13051;SDS011;6592;47.484;9.726;2023-07-20T03:08:42;3.33;;;1.20;;
13051;SDS011;6592;47.484;9.726;2023-07-20T03:11:13;3.60;;;1.20;;
13051;SDS011;6592;47.484;9.726;2023-07-20T03:13:42;2.90;;;1.35;;
13051;SDS011;6592;47.484;9.726;2023-07-20T03:16:12;6.57;;;1.52;;
13051;SDS011;6592;47.484;9.726;2023-07-20T03:18:42;4.07;;;1.42;;
13051;SDS011;6592;47.484;9.726;2023-07-20T03:21:10;3.58;;;1.63;;
13051;SDS011;6592;47.484;9.726;2023-07-20T03:23:39;5.13;;;1.52;;
13051;SDS011;6592;47.484;9.726;2023-07-20T03:26:08;3.38;;;1.42;;
13051;SDS011;6592;47.484;9.726;2023-07-20T03:28:36;2.13;;;0.98;;
13051;SDS011;6592;47.484;9.726;2023-07-20T03:31:05;1.88;;;0.80;;
13051;SDS011;6592;47.484;9.726;2023-07-20T03:33:35;3.10;;;1.20;;
13051;SDS011;6592;47.484;9.726;2023-07-20T03:36:03;4.75;;;1.23;;
13051;SDS011;6592;47.484;9.726;2023-07-20T03:38:32;2.88;;;1.10;;
13051;SDS011;6592;47.484;9.726;2023-07-20T03:41:00;3.15;;;1.13;;
13051;SDS011;6592;47.484;9.726;2023-07-20T03:43:28;2.92;;;1.23;;
13051;SDS011;6592;47.484;9.726;2023-07-20T03:45:56;2.65;;;1.30;;
13051;SDS011;6592;47.484;9.726;2023-07-20T03:48:25;3.53;;;1.20;;
13051;SDS011;6592;47.484;9.726;2023-07-20T03:50:54;3.20;;;1.23;;
13051;SDS011;6592;47.484;9.726;2023-07-20T03:53:22;4.82;;;1.00;;
13051;SDS011;6592;47.484;9.726;2023-07-20T03:55:51;2.97;;;1.20;;
13051;SDS011;6592;47.484;9.726;2023-07-20T03:58:20;4.85;;;1.60;;
13051;SDS011;6592;47.484;9.726;2023-07-20T04:00:50;4.85;;;1.30;;
13051;SDS011;6592;47.484;9.726;2023-07-20T04:03:19;4.55;;;1.42;;
13051;SDS011;6592;47.484;9.726;2023-07-20T04:05:49;3.03;;;1.67;;
13051;SDS011;6592;47.484;9.726;2023-07-20T04:08:20;4.15;;;1.80;;
13051;SDS011;6592;47.484;9.726;2023-07-20T04:10:48;3.30;;;1.50;;
13051;SDS011;6592;47.484;9.726;2023-07-20T04:13:17;3.45;;;1.70;;
13051;SDS011;6592;47.484;9.726;2023-07-20T04:15:45;4.15;;;1.70;;
13051;SDS011;6592;47.484;9.726;2023-07-20T04:18:13;4.25;;;1.70;;
13051;SDS011;6592;47.484;9.726;2023-07-20T04:20:41;3.47;;;1.70;;
13051;SDS011;6592;47.484;9.726;2023-07-20T04:23:09;3.50;;;1.65;;
13051;SDS011;6592;47.484;9.726;2023-07-20T04:25:40;4.43;;;1.60;;
13051;SDS011;6592;47.484;9.726;2023-07-20T04:28:09;5.85;;;1.50;;
13051;SDS011;6592;47.484;9.726;2023-07-20T04:30:37;4.75;;;1.70;;
13051;SDS011;6592;47.484;9.726;2023-07-20T04:33:07;3.65;;;1.60;;
13051;SDS011;6592;47.484;9.726;2023-07-20T04:35:48;4.38;;;1.60;;
13051;SDS011;6592;47.484;9.726;2023-07-20T04:38:18;4.43;;;1.85;;
13051;SDS011;6592;47.484;9.726;2023-07-20T04:40:48;3.28;;;1.80;;
13051;SDS011;6592;47.484;9.726;2023-07-20T04:43:17;3.50;;;1.40;;
13051;SDS011;6592;47.484;9.726;2023-07-20T04:45:45;3.03;;;1.45;;
13051;SDS011;6592;47.484;9.726;2023-07-20T04:48:14;4.18;;;1.80;;
13051;SDS011;6592;47.484;9.726;2023-07-20T04:50:44;3.22;;;1.35;;
13051;SDS011;6592;47.484;9.726;2023-07-20T04:53:13;6.85;;;1.70;;
13051;SDS011;6592;47.484;9.726;2023-07-20T04:55:46;3.08;;;1.40;;
13051;SDS011;6592;47.484;9.726;2023-07-20T04:58:19;3.78;;;1.58;;
13051;SDS011;6592;47.484;9.726;2023-07-20T05:00:48;4.65;;;1.80;;
13051;SDS011;6592;47.484;9.726;2023-07-20T05:03:17;4.03;;;1.70;;
13051;SDS011;6592;47.484;9.726;2023-07-20T05:05:46;5.28;;;1.60;;
13051;SDS011;6592;47.484;9.726;2023-07-20T05:08:15;3.83;;;1.63;;
13051;SDS011;6592;47.484;9.726;2023-07-20T05:10:44;3.30;;;1.38;;
13051;SDS011;6592;47.484;9.726;2023-07-20T05:13:14;4.05;;;1.60;;
13051;SDS011;6592;47.484;9.726;2023-07-20T05:15:42;4.53;;;1.40;;
13051;SDS011;6592;47.484;9.726;2023-07-20T05:18:10;5.55;;;1.60;;
13051;SDS011;6592;47.484;9.726;2023-07-20T05:20:38;5.53;;;1.75;;
13051;SDS011;6592;47.484;9.726;2023-07-20T05:23:06;4.15;;;1.52;;
13051;SDS011;6592;47.484;9.726;2023-07-20T05:25:35;4.03;;;1.60;;
13051;SDS011;6592;47.484;9.726;2023-07-20T05:28:04;4.47;;;1.40;;
13051;SDS011;6592;47.484;9.726;2023-07-20T05:30:33;4.70;;;1.50;;
13051;SDS011;6592;47.484;9.726;2023-07-20T05:33:02;3.33;;;1.30;;
13051;SDS011;6592;47.484;9.726;2023-07-20T05:35:30;6.57;;;1.50;;
13051;SDS011;6592;47.484;9.726;2023-07-20T05:37:58;4.85;;;1.60;;
13051;SDS011;6592;47.484;9.726;2023-07-20T05:40:26;5.10;;;1.30;;
13051;SDS011;6592;47.484;9.726;2023-07-20T05:42:55;3.13;;;1.33;;
13051;SDS011;6592;47.484;9.726;2023-07-20T05:45:23;3.72;;;1.60;;
13051;SDS011;6592;47.484;9.726;2023-07-20T05:47:53;3.20;;;1.30;;
13051;SDS011;6592;47.484;9.726;2023-07-20T05:50:21;3.00;;;1.30;;
13051;SDS011;6592;47.484;9.726;2023-07-20T05:52:51;2.90;;;1.20;;
13051;SDS011;6592;47.484;9.726;2023-07-20T05:55:20;5.20;;;1.10;;
13051;SDS011;6592;47.484;9.726;2023-07-20T05:57:48;3.88;;;1.38;;
13051;SDS011;6592;47.484;9.726;2023-07-20T06:00:17;3.70;;;1.40;;
13051;SDS011;6592;47.484;9.726;2023-07-20T06:02:54;3.50;;;1.20;;
13051;SDS011;6592;47.484;9.726;2023-07-20T06:05:22;4.60;;;1.95;;
13051;SDS011;6592;47.484;9.726;2023-07-20T06:07:54;4.03;;;1.73;;
13051;SDS011;6592;47.484;9.726;2023-07-20T06:10:24;3.60;;;1.35;;
13051;SDS011;6592;47.484;9.726;2023-07-20T06:12:53;4.57;;;1.40;;
13051;SDS011;6592;47.484;9.726;2023-07-20T06:15:25;4.75;;;1.75;;
13051;SDS011;6592;47.484;9.726;2023-07-20T06:17:56;3.58;;;1.42;;
13051;SDS011;6592;47.484;9.726;2023-07-20T06:20:25;3.70;;;1.38;;
13051;SDS011;6592;47.484;9.726;2023-07-20T06:22:53;3.03;;;1.50;;
13051;SDS011;6592;47.484;9.726;2023-07-20T06:25:21;5.30;;;1.50;;
13051;SDS011;6592;47.484;9.726;2023-07-20T06:27:50;3.33;;;1.45;;
13051;SDS011;6592;47.484;9.726;2023-07-20T06:30:18;3.90;;;1.33;;
13051;SDS011;6592;47.484;9.726;2023-07-20T06:32:47;4.45;;;1.40;;
13051;SDS011;6592;47.484;9.726;2023-07-20T06:35:17;3.00;;;1.23;;
13051;SDS011;6592;47.484;9.726;2023-07-20T06:37:45;4.18;;;1.30;;
13051;SDS011;6592;47.484;9.726;2023-07-20T06:40:13;3.40;;;1.38;;
13051;SDS011;6592;47.484;9.726;2023-07-20T06:42:45;3.58;;;1.42;;
13051;SDS011;6592;47.484;9.726;2023-07-20T06:45:16;3.83;;;1.40;;
13051;SDS011;6592;47.484;9.726;2023-07-20T06:47:44;2.65;;;1.10;;
13051;SDS011;6592;47.484;9.726;2023-07-20T06:50:13;4.25;;;1.30;;
13051;SDS011;6592;47.484;9.726;2023-07-20T06:52:45;3.63;;;1.27;;
13051;SDS011;6592;47.484;9.726;2023-07-20T06:55:14;4.18;;;1.20;;
13051;SDS011;6592;47.484;9.726;2023-07-20T06:57:49;3.40;;;1.40;;
13051;SDS011;6592;47.484;9.726;2023-07-20T07:00:18;4.15;;;1.40;;
13051;SDS011;6592;47.484;9.726;2023-07-20T07:02:47;4.80;;;1.45;;
13051;SDS011;6592;47.484;9.726;2023-07-20T07:05:16;2.72;;;1.50;;
13051;SDS011;6592;47.484;9.726;2023-07-20T07:07:52;2.30;;;1.30;;
13051;SDS011;6592;47.484;9.726;2023-07-20T07:10:20;2.90;;;1.40;;
13051;SDS011;6592;47.484;9.726;2023-07-20T07:12:48;6.18;;;1.40;;
13051;SDS011;6592;47.484;9.726;2023-07-20T07:15:16;3.45;;;1.58;;
13051;SDS011;6592;47.484;9.726;2023-07-20T07:17:45;3.20;;;1.23;;
13051;SDS011;6592;47.484;9.726;2023-07-20T07:20:13;5.72;;;1.48;;
13051;SDS011;6592;47.484;9.726;2023-07-20T07:22:44;2.85;;;1.30;;
13051;SDS011;6592;47.484;9.726;2023-07-20T07:25:14;5.40;;;1.40;;
13051;SDS011;6592;47.484;9.726;2023-07-20T07:27:48;2.83;;;1.30;;
13051;SDS011;6592;47.484;9.726;2023-07-20T07:30:18;5.00;;;1.25;;
13051;SDS011;6592;47.484;9.726;2023-07-20T07:32:46;8.68;;;1.40;;
13051;SDS011;6592;47.484;9.726;2023-07-20T07:35:14;3.22;;;1.00;;
13051;SDS011;6592;47.484;9.726;2023-07-20T07:37:43;3.70;;;1.30;;
13051;SDS011;6592;47.484;9.726;2023-07-20T07:40:34;4.07;;;1.33;;
13051;SDS011;6592;47.484;9.726;2023-07-20T07:43:02;4.72;;;1.45;;
13051;SDS011;6592;47.484;9.726;2023-07-20T07:45:31;5.93;;;1.48;;
13051;SDS011;6592;47.484;9.726;2023-07-20T07:48:03;2.50;;;1.20;;
13051;SDS011;6592;47.484;9.726;2023-07-20T07:50:32;2.22;;;1.00;;
13051;SDS011;6592;47.484;9.726;2023-07-20T07:53:00;2.58;;;1.20;;
13051;SDS011;6592;47.484;9.726;2023-07-20T07:55:29;4.22;;;1.40;;
13051;SDS011;6592;47.484;9.726;2023-07-20T07:57:59;3.08;;;1.40;;
13051;SDS011;6592;47.484;9.726;2023-07-20T08:00:27;3.72;;;1.20;;
13051;SDS011;6592;47.484;9.726;2023-07-20T08:02:55;3.20;;;1.20;;
13051;SDS011;6592;47.484;9.726;2023-07-20T08:05:24;2.65;;;1.10;;
13051;SDS011;6592;47.484;9.726;2023-07-20T08:07:52;3.08;;;1.20;;
13051;SDS011;6592;47.484;9.726;2023-07-20T08:10:21;3.30;;;1.23;;
13051;SDS011;6592;47.484;9.726;2023-07-20T08:12:49;2.45;;;1.10;;
13051;SDS011;6592;47.484;9.726;2023-07-20T08:15:19;2.22;;;1.00;;
13051;SDS011;6592;47.484;9.726;2023-07-20T08:17:47;3.03;;;1.08;;
13051;SDS011;6592;47.484;9.726;2023-07-20T08:20:18;3.92;;;1.20;;
13051;SDS011;6592;47.484;9.726;2023-07-20T08:22:49;3.45;;;1.20;;
13051;SDS011;6592;47.484;9.726;2023-07-20T08:25:19;2.17;;;1.00;;
13051;SDS011;6592;47.484;9.726;2023-07-20T08:27:47;3.38;;;1.27;;
13051;SDS011;6592;47.484;9.726;2023-07-20T08:30:15;5.07;;;1.33;;
13051;SDS011;6592;47.484;9.726;2023-07-20T08:32:45;7.13;;;1.20;;
13051;SDS011;6592;47.484;9.726;2023-07-20T08:35:13;3.93;;;1.23;;
13051;SDS011;6592;47.484;9.726;2023-07-20T08:37:42;5.38;;;1.00;;
13051;SDS011;6592;47.484;9.726;2023-07-20T08:40:11;3.05;;;1.02;;
13051;SDS011;6592;47.484;9.726;2023-07-20T08:45:09;3.85;;;1.25;;
13051;SDS011;6592;47.484;9.726;2023-07-20T08:47:41;2.55;;;1.10;;
13051;SDS011;6592;47.484;9.726;2023-07-20T08:50:12;4.05;;;1.27;;
13051;SDS011;6592;47.484;9.726;2023-07-20T08:52:42;2.55;;;1.02;;
13051;SDS011;6592;47.484;9.726;2023-07-20T08:55:10;2.33;;;1.02;;
13051;SDS011;6592;47.484;9.726;2023-07-20T08:57:40;1.75;;;1.00;;
13051;SDS011;6592;47.484;9.726;2023-07-20T09:00:12;2.78;;;1.10;;
13051;SDS011;6592;47.484;9.726;2023-07-20T09:02:43;3.58;;;1.10;;
13051;SDS011;6592;47.484;9.726;2023-07-20T09:05:14;2.70;;;1.02;;
13051;SDS011;6592;47.484;9.726;2023-07-20T09:07:42;2.75;;;0.90;;
13051;SDS011;6592;47.484;9.726;2023-07-20T09:10:11;5.93;;;1.30;;
13051;SDS011;6592;47.484;9.726;2023-07-20T09:12:40;2.60;;;1.27;;
13051;SDS011;6592;47.484;9.726;2023-07-20T09:15:10;2.17;;;1.00;;
13051;SDS011;6592;47.484;9.726;2023-07-20T09:17:39;3.42;;;1.38;;
13051;SDS011;6592;47.484;9.726;2023-07-20T09:20:16;4.38;;;1.30;;
13051;SDS011;6592;47.484;9.726;2023-07-20T09:22:50;3.70;;;1.20;;
13051;SDS011;6592;47.484;9.726;2023-07-20T09:25:20;1.85;;;0.95;;
13051;SDS011;6592;47.484;9.726;2023-07-20T09:27:54;2.80;;;1.10;;
13051;SDS011;6592;47.484;9.726;2023-07-20T09:30:25;4.10;;;1.23;;
13051;SDS011;6592;47.484;9.726;2023-07-20T09:32:58;2.97;;;1.30;;
13051;SDS011;6592;47.484;9.726;2023-07-20T09:35:27;2.00;;;1.00;;
13051;SDS011;6592;47.484;9.726;2023-07-20T09:38:08;2.42;;;1.20;;
13051;SDS011;6592;47.484;9.726;2023-07-20T09:40:40;2.10;;;1.10;;
13051;SDS011;6592;47.484;9.726;2023-07-20T09:43:11;3.65;;;1.30;;
13051;SDS011;6592;47.484;9.726;2023-07-20T09:45:43;2.85;;;1.27;;
13051;SDS011;6592;47.484;9.726;2023-07-20T09:48:15;4.28;;;1.15;;
13051;SDS011;6592;47.484;9.726;2023-07-20T09:50:49;2.33;;;1.05;;
13051;SDS011;6592;47.484;9.726;2023-07-20T09:53:18;3.70;;;1.20;;
13051;SDS011;6592;47.484;9.726;2023-07-20T09:55:47;2.75;;;1.30;;
13051;SDS011;6592;47.484;9.726;2023-07-20T09:58:16;4.05;;;1.33;;
13051;SDS011;6592;47.484;9.726;2023-07-20T10:00:46;2.75;;;1.00;;
13051;SDS011;6592;47.484;9.726;2023-07-20T10:03:21;4.82;;;1.10;;
13051;SDS011;6592;47.484;9.726;2023-07-20T10:05:54;4.47;;;1.08;;
13051;SDS011;6592;47.484;9.726;2023-07-20T10:08:25;1.77;;;1.05;;
13051;SDS011;6592;47.484;9.726;2023-07-20T10:10:59;2.20;;;1.02;;
13051;SDS011;6592;47.484;9.726;2023-07-20T10:13:29;2.88;;;1.17;;
13051;SDS011;6592;47.484;9.726;2023-07-20T10:15:59;3.15;;;1.17;;
13051;SDS011;6592;47.484;9.726;2023-07-20T10:18:31;2.60;;;1.20;;
13051;SDS011;6592;47.484;9.726;2023-07-20T10:21:06;3.00;;;1.30;;
13051;SDS011;6592;47.484;9.726;2023-07-20T10:23:40;3.83;;;1.17;;
13051;SDS011;6592;47.484;9.726;2023-07-20T10:26:08;3.83;;;1.00;;
13051;SDS011;6592;47.484;9.726;2023-07-20T10:28:37;2.03;;;1.05;;
13051;SDS011;6592;47.484;9.726;2023-07-20T10:31:07;2.85;;;1.20;;
13051;SDS011;6592;47.484;9.726;2023-07-20T10:33:37;2.13;;;1.10;;
13051;SDS011;6592;47.484;9.726;2023-07-20T10:36:07;6.10;;;1.10;;
13051;SDS011;6592;47.484;9.726;2023-07-20T10:38:39;4.15;;;1.10;;
13051;SDS011;6592;47.484;9.726;2023-07-20T10:41:18;2.97;;;1.00;;
13051;SDS011;6592;47.484;9.726;2023-07-20T10:43:47;5.72;;;1.27;;
13051;SDS011;6592;47.484;9.726;2023-07-20T10:49:11;2.53;;;1.10;;
13051;SDS011;6592;47.484;9.726;2023-07-20T10:51:43;4.32;;;1.20;;
13051;SDS011;6592;47.484;9.726;2023-07-20T10:57:22;3.40;;;1.00;;
13051;SDS011;6592;47.484;9.726;2023-07-20T11:00:09;2.75;;;1.17;;
13051;SDS011;6592;47.484;9.726;2023-07-20T11:02:45;3.30;;;1.15;;
13051;SDS011;6592;47.484;9.726;2023-07-20T11:05:36;3.92;;;1.13;;
13051;SDS011;6592;47.484;9.726;2023-07-20T11:08:09;3.58;;;1.05;;
13051;SDS011;6592;47.484;9.726;2023-07-20T11:10:39;2.63;;;1.17;;
13051;SDS011;6592;47.484;9.726;2023-07-20T11:13:20;4.18;;;1.40;;
13051;SDS011;6592;47.484;9.726;2023-07-20T11:16:04;2.92;;;1.08;;
13051;SDS011;6592;47.484;9.726;2023-07-20T11:18:33;2.42;;;1.08;;
13051;SDS011;6592;47.484;9.726;2023-07-20T11:21:07;2.47;;;1.00;;
13051;SDS011;6592;47.484;9.726;2023-07-20T11:23:39;2.30;;;1.00;;
13051;SDS011;6592;47.484;9.726;2023-07-20T11:26:07;3.70;;;1.13;;
13051;SDS011;6592;47.484;9.726;2023-07-20T11:28:36;2.45;;;1.00;;
13051;SDS011;6592;47.484;9.726;2023-07-20T11:31:04;2.53;;;1.10;;
13051;SDS011;6592;47.484;9.726;2023-07-20T11:33:33;3.05;;;1.00;;
13051;SDS011;6592;47.484;9.726;2023-07-20T11:36:01;2.38;;;1.20;;
13051;SDS011;6592;47.484;9.726;2023-07-20T11:38:50;2.97;;;1.00;;
13051;SDS011;6592;47.484;9.726;2023-07-20T11:41:19;3.65;;;1.20;;
13051;SDS011;6592;47.484;9.726;2023-07-20T11:43:47;3.22;;;1.25;;
13051;SDS011;6592;47.484;9.726;2023-07-20T11:46:16;2.17;;;1.02;;
13051;SDS011;6592;47.484;9.726;2023-07-20T11:48:44;2.58;;;1.10;;
13051;SDS011;6592;47.484;9.726;2023-07-20T11:51:15;1.98;;;1.10;;
13051;SDS011;6592;47.484;9.726;2023-07-20T11:53:44;1.85;;;0.90;;
13051;SDS011;6592;47.484;9.726;2023-07-20T11:56:15;3.27;;;1.30;;
13051;SDS011;6592;47.484;9.726;2023-07-20T11:58:43;1.90;;;1.00;;
13051;SDS011;6592;47.484;9.726;2023-07-20T12:01:12;2.80;;;1.10;;
13051;SDS011;6592;47.484;9.726;2023-07-20T12:03:41;3.17;;;1.00;;
13051;SDS011;6592;47.484;9.726;2023-07-20T12:06:10;2.40;;;1.00;;
13051;SDS011;6592;47.484;9.726;2023-07-20T12:08:39;2.30;;;1.10;;
13051;SDS011;6592;47.484;9.726;2023-07-20T12:11:08;2.70;;;1.10;;
13051;SDS011;6592;47.484;9.726;2023-07-20T12:13:38;2.58;;;1.10;;
13051;SDS011;6592;47.484;9.726;2023-07-20T12:16:11;1.88;;;0.95;;
13051;SDS011;6592;47.484;9.726;2023-07-20T12:18:41;2.17;;;1.00;;
13051;SDS011;6592;47.484;9.726;2023-07-20T12:21:10;2.45;;;1.10;;
13051;SDS011;6592;47.484;9.726;2023-07-20T12:23:39;3.92;;;1.10;;
13051;SDS011;6592;47.484;9.726;2023-07-20T12:26:09;2.95;;;1.20;;
13051;SDS011;6592;47.484;9.726;2023-07-20T12:28:42;3.38;;;0.93;;
13051;SDS011;6592;47.484;9.726;2023-07-20T12:31:10;2.40;;;1.02;;
13051;SDS011;6592;47.484;9.726;2023-07-20T12:33:40;9.93;;;1.50;;
13051;SDS011;6592;47.484;9.726;2023-07-20T12:36:08;2.45;;;1.08;;
13051;SDS011;6592;47.484;9.726;2023-07-20T12:38:37;2.30;;;1.00;;
13051;SDS011;6592;47.484;9.726;2023-07-20T12:41:05;2.33;;;1.10;;
13051;SDS011;6592;47.484;9.726;2023-07-20T12:43:33;2.85;;;1.30;;
13051;SDS011;6592;47.484;9.726;2023-07-20T12:46:03;2.40;;;1.25;;
13051;SDS011;6592;47.484;9.726;2023-07-20T12:48:32;2.50;;;1.25;;
13051;SDS011;6592;47.484;9.726;2023-07-20T12:51:00;2.47;;;1.20;;
13051;SDS011;6592;47.484;9.726;2023-07-20T12:53:30;4.05;;;1.02;;
13051;SDS011;6592;47.484;9.726;2023-07-20T12:55:58;2.25;;;1.30;;
13051;SDS011;6592;47.484;9.726;2023-07-20T12:58:47;2.35;;;1.17;;
13051;SDS011;6592;47.484;9.726;2023-07-20T13:01:18;3.30;;;1.05;;
13051;SDS011;6592;47.484;9.726;2023-07-20T13:03:46;6.70;;;1.30;;
13051;SDS011;6592;47.484;9.726;2023-07-20T13:06:17;1.90;;;0.98;;
13051;SDS011;6592;47.484;9.726;2023-07-20T13:08:48;3.60;;;1.40;;
13051;SDS011;6592;47.484;9.726;2023-07-20T13:11:22;2.30;;;1.20;;
13051;SDS011;6592;47.484;9.726;2023-07-20T13:13:51;4.50;;;1.10;;
13051;SDS011;6592;47.484;9.726;2023-07-20T13:16:20;2.50;;;1.25;;
13051;SDS011;6592;47.484;9.726;2023-07-20T13:18:49;2.63;;;1.42;;
13051;SDS011;6592;47.484;9.726;2023-07-20T13:21:17;2.05;;;1.10;;
13051;SDS011;6592;47.484;9.726;2023-07-20T13:23:50;2.50;;;1.05;;
13051;SDS011;6592;47.484;9.726;2023-07-20T13:26:18;2.40;;;1.05;;
13051;SDS011;6592;47.484;9.726;2023-07-20T13:28:47;4.28;;;1.45;;
13051;SDS011;6592;47.484;9.726;2023-07-20T13:31:15;3.78;;;1.60;;
13051;SDS011;6592;47.484;9.726;2023-07-20T13:33:45;2.80;;;1.30;;
13051;SDS011;6592;47.484;9.726;2023-07-20T13:36:23;3.10;;;1.48;;
13051;SDS011;6592;47.484;9.726;2023-07-20T13:38:51;3.60;;;1.30;;
13051;SDS011;6592;47.484;9.726;2023-07-20T13:41:20;3.38;;;1.20;;
13051;SDS011;6592;47.484;9.726;2023-07-20T13:43:50;3.00;;;1.10;;
13051;SDS011;6592;47.484;9.726;2023-07-20T13:46:23;3.85;;;1.30;;
13051;SDS011;6592;47.484;9.726;2023-07-20T13:48:55;4.32;;;1.30;;
13051;SDS011;6592;47.484;9.726;2023-07-20T13:51:24;2.92;;;1.42;;
13051;SDS011;6592;47.484;9.726;2023-07-20T13:53:54;4.72;;;1.30;;
13051;SDS011;6592;47.484;9.726;2023-07-20T13:56:22;2.45;;;1.17;;
13051;SDS011;6592;47.484;9.726;2023-07-20T13:58:51;3.03;;;1.20;;
13051;SDS011;6592;47.484;9.726;2023-07-20T14:01:19;2.75;;;1.38;;
13051;SDS011;6592;47.484;9.726;2023-07-20T14:03:52;3.30;;;1.30;;
13051;SDS011;6592;47.484;9.726;2023-07-20T14:06:22;2.97;;;1.30;;
13051;SDS011;6592;47.484;9.726;2023-07-20T14:08:55;2.58;;;1.25;;
13051;SDS011;6592;47.484;9.726;2023-07-20T14:11:23;3.38;;;1.08;;
13051;SDS011;6592;47.484;9.726;2023-07-20T14:13:54;3.63;;;1.20;;
13051;SDS011;6592;47.484;9.726;2023-07-20T14:16:24;3.00;;;1.13;;
13051;SDS011;6592;47.484;9.726;2023-07-20T14:18:53;2.85;;;1.20;;
13051;SDS011;6592;47.484;9.726;2023-07-20T14:21:23;5.22;;;1.40;;
13051;SDS011;6592;47.484;9.726;2023-07-20T14:23:52;4.05;;;1.40;;
13051;SDS011;6592;47.484;9.726;2023-07-20T14:26:20;2.90;;;1.27;;
13051;SDS011;6592;47.484;9.726;2023-07-20T14:28:49;1.90;;;1.08;;
13051;SDS011;6592;47.484;9.726;2023-07-20T14:31:17;2.58;;;1.40;;
13051;SDS011;6592;47.484;9.726;2023-07-20T14:33:46;3.30;;;1.38;;
13051;SDS011;6592;47.484;9.726;2023-07-20T14:36:15;2.40;;;1.27;;
13051;SDS011;6592;47.484;9.726;2023-07-20T14:38:45;2.45;;;1.20;;
13051;SDS011;6592;47.484;9.726;2023-07-20T14:41:14;2.55;;;1.17;;
13051;SDS011;6592;47.484;9.726;2023-07-20T14:43:42;2.60;;;1.20;;
13051;SDS011;6592;47.484;9.726;2023-07-20T14:46:11;4.63;;;1.60;;
13051;SDS011;6592;47.484;9.726;2023-07-20T14:48:40;4.10;;;1.40;;
13051;SDS011;6592;47.484;9.726;2023-07-20T14:51:08;3.60;;;1.38;;
13051;SDS011;6592;47.484;9.726;2023-07-20T14:53:36;2.92;;;1.17;;
13051;SDS011;6592;47.484;9.726;2023-07-20T14:56:06;2.25;;;1.20;;
13051;SDS011;6592;47.484;9.726;2023-07-20T14:58:34;3.40;;;1.38;;
13051;SDS011;6592;47.484;9.726;2023-07-20T15:01:02;4.05;;;1.20;;
13051;SDS011;6592;47.484;9.726;2023-07-20T15:03:31;3.22;;;1.30;;
13051;SDS011;6592;47.484;9.726;2023-07-20T15:06:00;2.88;;;1.45;;
13051;SDS011;6592;47.484;9.726;2023-07-20T15:08:29;2.47;;;1.15;;
13051;SDS011;6592;47.484;9.726;2023-07-20T15:10:58;1.88;;;1.00;;
13051;SDS011;6592;47.484;9.726;2023-07-20T15:13:28;4.00;;;1.17;;
13051;SDS011;6592;47.484;9.726;2023-07-20T15:15:56;2.42;;;1.13;;
13051;SDS011;6592;47.484;9.726;2023-07-20T15:18:24;3.78;;;1.25;;
13051;SDS011;6592;47.484;9.726;2023-07-20T15:21:11;3.25;;;1.20;;
13051;SDS011;6592;47.484;9.726;2023-07-20T15:23:39;4.20;;;1.30;;
13051;SDS011;6592;47.484;9.726;2023-07-20T15:26:07;5.28;;;1.55;;
13051;SDS011;6592;47.484;9.726;2023-07-20T15:28:38;4.77;;;1.20;;
13051;SDS011;6592;47.484;9.726;2023-07-20T15:31:07;5.40;;;1.30;;